sensor_id;sensor_type;location;lat;lon;timestamp;pressure;altitude;pressure_sealevel;temperature;humidity
70323;BME280;57735;56.264;43.898;2023-03-22T00:01:43;99864.81;;;3.51;66.47
70323;BME280;57735;56.264;43.898;2023-03-22T00:04:15;99863.00;;;3.52;66.60
70323;BME280;57735;56.264;43.898;2023-03-22T00:06:45;99863.81;;;3.52;66.57
70323;BME280;57735;56.264;43.898;2023-03-22T00:09:16;99869.94;;;3.53;66.59
70323;BME280;57735;56.264;43.898;2023-03-22T00:11:47;99860.94;;;3.55;66.63
70323;BME280;57735;56.264;43.898;2023-03-22T00:14:20;99866.09;;;3.57;66.88
70323;BME280;57735;56.264;43.898;2023-03-22T00:16:50;99860.94;;;3.55;67.06
70323;BME280;57735;56.264;43.898;2023-03-22T00:19:21;99870.75;;;3.53;67.15
70323;BME280;57735;56.264;43.898;2023-03-22T00:21:51;99864.81;;;3.51;67.30
70323;BME280;57735;56.264;43.898;2023-03-22T00:24:22;99861.56;;;3.47;67.52
70323;BME280;57735;56.264;43.898;2023-03-22T00:26:52;99868.63;;;3.47;67.60
70323;BME280;57735;56.264;43.898;2023-03-22T00:29:23;99862.41;;;3.48;67.68
70323;BME280;57735;56.264;43.898;2023-03-22T00:31:53;99859.78;;;3.48;67.67
70323;BME280;57735;56.264;43.898;2023-03-22T00:34:27;99859.88;;;3.46;67.59
70323;BME280;57735;56.264;43.898;2023-03-22T00:37:02;99854.75;;;3.45;67.77
70323;BME280;57735;56.264;43.898;2023-03-22T00:39:33;99859.16;;;3.44;67.84
70323;BME280;57735;56.264;43.898;2023-03-22T00:42:04;99863.59;;;3.44;67.59
70323;BME280;57735;56.264;43.898;2023-03-22T00:44:35;99864.56;;;3.43;67.82
70323;BME280;57735;56.264;43.898;2023-03-22T00:47:06;99873.31;;;3.43;68.03
70323;BME280;57735;56.264;43.898;2023-03-22T00:49:37;99867.91;;;3.45;67.63
70323;BME280;57735;56.264;43.898;2023-03-22T00:52:10;99872.94;;;3.48;67.73
70323;BME280;57735;56.264;43.898;2023-03-22T00:54:40;99877.97;;;3.51;67.58
70323;BME280;57735;56.264;43.898;2023-03-22T00:57:11;99886.56;;;3.53;67.54
70323;BME280;57735;56.264;43.898;2023-03-22T00:59:43;99877.84;;;3.53;67.60
70323;BME280;57735;56.264;43.898;2023-03-22T01:02:13;99884.78;;;3.54;67.73
70323;BME280;57735;56.264;43.898;2023-03-22T01:04:44;99880.47;;;3.53;67.51
70323;BME280;57735;56.264;43.898;2023-03-22T01:07:19;99882.13;;;3.54;67.70
70323;BME280;57735;56.264;43.898;2023-03-22T01:09:50;99890.78;;;3.56;67.53
70323;BME280;57735;56.264;43.898;2023-03-22T01:12:21;99889.69;;;3.58;67.54
70323;BME280;57735;56.264;43.898;2023-03-22T01:14:52;99890.53;;;3.59;67.68
70323;BME280;57735;56.264;43.898;2023-03-22T01:17:22;99891.38;;;3.59;67.65
70323;BME280;57735;56.264;43.898;2023-03-22T01:19:53;99898.31;;;3.60;67.57
70323;BME280;57735;56.264;43.898;2023-03-22T01:22:23;99901.06;;;3.59;67.78
70323;BME280;57735;56.264;43.898;2023-03-22T01:24:54;99894.25;;;3.56;67.75
70323;BME280;57735;56.264;43.898;2023-03-22T01:27:24;99903.00;;;3.57;67.84
70323;BME280;57735;56.264;43.898;2023-03-22T01:29:55;99899.50;;;3.56;67.87
70323;BME280;57735;56.264;43.898;2023-03-22T01:32:25;99900.22;;;3.58;67.98
70323;BME280;57735;56.264;43.898;2023-03-22T01:34:56;99905.38;;;3.60;67.87
70323;BME280;57735;56.264;43.898;2023-03-22T01:37:26;99907.91;;;3.61;67.90
70323;BME280;57735;56.264;43.898;2023-03-22T01:39:57;99917.38;;;3.64;67.88
70323;BME280;57735;56.264;43.898;2023-03-22T01:42:28;99914.97;;;3.61;67.79
70323;BME280;57735;56.264;43.898;2023-03-22T01:47:46;99925.50;;;3.61;68.12
70323;BME280;57735;56.264;43.898;2023-03-22T01:50:18;99930.78;;;3.61;68.15
70323;BME280;57735;56.264;43.898;2023-03-22T01:52:49;99932.47;;;3.62;68.19
70323;BME280;57735;56.264;43.898;2023-03-22T01:55:20;99937.63;;;3.63;68.05
70323;BME280;57735;56.264;43.898;2023-03-22T01:57:51;99932.22;;;3.65;68.07
70323;BME280;57735;56.264;43.898;2023-03-22T02:00:23;99937.38;;;3.66;68.25
70323;BME280;57735;56.264;43.898;2023-03-22T02:02:53;99940.84;;;3.67;68.21
70323;BME280;57735;56.264;43.898;2023-03-22T02:05:24;99943.38;;;3.68;68.08
70323;BME280;57735;56.264;43.898;2023-03-22T02:07:54;99936.16;;;3.70;67.99
70323;BME280;57735;56.264;43.898;2023-03-22T02:10:25;99945.03;;;3.69;68.05
70323;BME280;57735;56.264;43.898;2023-03-22T02:15:43;99941.44;;;3.70;68.03
70323;BME280;57735;56.264;43.898;2023-03-22T02:18:20;99937.84;;;3.71;68.04
70323;BME280;57735;56.264;43.898;2023-03-22T02:21:10;99946.69;;;3.70;68.16
70323;BME280;57735;56.264;43.898;2023-03-22T02:26:43;99943.09;;;3.71;68.16
70323;BME280;57735;56.264;43.898;2023-03-22T02:29:32;99950.16;;;3.71;68.23
70323;BME280;57735;56.264;43.898;2023-03-22T02:32:13;99959.75;;;3.72;68.13
70323;BME280;57735;56.264;43.898;2023-03-22T02:37:57;99953.66;;;3.71;68.01
70323;BME280;57735;56.264;43.898;2023-03-22T02:40:51;99957.13;;;3.72;68.08
70323;BME280;57735;56.264;43.898;2023-03-22T02:43:47;99966.00;;;3.71;68.12
70323;BME280;57735;56.264;43.898;2023-03-22T02:46:24;99968.50;;;3.72;68.06
70323;BME280;57735;56.264;43.898;2023-03-22T02:49:03;99970.19;;;3.73;68.09
70323;BME280;57735;56.264;43.898;2023-03-22T02:51:41;99970.31;;;3.72;68.05
70323;BME280;57735;56.264;43.898;2023-03-22T02:54:22;99981.69;;;3.72;68.00
70323;BME280;57735;56.264;43.898;2023-03-22T02:57:05;99980.00;;;3.71;68.04
70323;BME280;57735;56.264;43.898;2023-03-22T02:59:38;99980.13;;;3.70;68.22
70323;BME280;57735;56.264;43.898;2023-03-22T03:02:11;99991.50;;;3.70;68.33
70323;BME280;57735;56.264;43.898;2023-03-22T03:04:44;99987.19;;;3.69;68.15
70323;BME280;57735;56.264;43.898;2023-03-22T03:07:17;99985.53;;;3.68;68.48
70323;BME280;57735;56.264;43.898;2023-03-22T03:09:48;99997.03;;;3.67;68.46
70323;BME280;57735;56.264;43.898;2023-03-22T03:12:20;99996.44;;;3.64;68.79
70323;BME280;57735;56.264;43.898;2023-03-22T03:14:52;100000.97;;;3.62;69.20
70323;BME280;57735;56.264;43.898;2023-03-22T03:28:38;100024.44;;;3.54;70.24
70323;BME280;57735;56.264;43.898;2023-03-22T03:31:19;100020.00;;;3.54;70.20
70323;BME280;57735;56.264;43.898;2023-03-22T03:36:23;100024.19;;;3.57;70.39
70323;BME280;57735;56.264;43.898;2023-03-22T03:38:57;100032.72;;;3.60;70.43
70323;BME280;57735;56.264;43.898;2023-03-22T03:41:29;100038.59;;;3.64;70.45
70323;BME280;57735;56.264;43.898;2023-03-22T03:44:01;100042.06;;;3.64;70.27
70323;BME280;57735;56.264;43.898;2023-03-22T03:46:32;100049.25;;;3.62;70.43
70323;BME280;57735;56.264;43.898;2023-03-22T03:49:02;100043.03;;;3.63;70.50
70323;BME280;57735;56.264;43.898;2023-03-22T03:51:35;100055.38;;;3.63;70.57
70323;BME280;57735;56.264;43.898;2023-03-22T03:54:15;100063.88;;;3.66;70.73
70323;BME280;57735;56.264;43.898;2023-03-22T03:56:45;100062.44;;;3.62;70.82
70323;BME280;57735;56.264;43.898;2023-03-22T03:59:20;100065.91;;;3.63;70.78
70323;BME280;57735;56.264;43.898;2023-03-22T04:01:50;100080.66;;;3.65;70.96
70323;BME280;57735;56.264;43.898;2023-03-22T04:04:22;100082.81;;;3.71;70.84
70323;BME280;57735;56.264;43.898;2023-03-22T04:06:57;100078.03;;;3.76;71.00
70323;BME280;57735;56.264;43.898;2023-03-22T04:09:29;100085.81;;;3.78;70.70
70323;BME280;57735;56.264;43.898;2023-03-22T04:12:00;100081.16;;;3.81;70.71
70323;BME280;57735;56.264;43.898;2023-03-22T04:14:31;100085.09;;;3.87;70.77
70323;BME280;57735;56.264;43.898;2023-03-22T04:17:01;100094.22;;;3.94;70.51
70323;BME280;57735;56.264;43.898;2023-03-22T04:19:34;100094.72;;;3.99;70.58
70323;BME280;57735;56.264;43.898;2023-03-22T04:22:05;100092.44;;;4.06;70.51
70323;BME280;57735;56.264;43.898;2023-03-22T04:24:35;100100.22;;;4.07;70.25
70323;BME280;57735;56.264;43.898;2023-03-22T04:27:07;100104.44;;;4.10;70.47
70323;BME280;57735;56.264;43.898;2023-03-22T04:29:37;100106.22;;;4.09;70.29
70323;BME280;57735;56.264;43.898;2023-03-22T04:32:08;100107.06;;;4.10;70.24
70323;BME280;57735;56.264;43.898;2023-03-22T04:34:38;100111.50;;;4.09;70.42
70323;BME280;57735;56.264;43.898;2023-03-22T04:37:09;100109.47;;;4.13;70.34
70323;BME280;57735;56.264;43.898;2023-03-22T04:39:39;100116.31;;;4.15;70.31
70323;BME280;57735;56.264;43.898;2023-03-22T04:42:12;100123.16;;;4.18;70.43
70323;BME280;57735;56.264;43.898;2023-03-22T04:44:43;100134.91;;;4.14;70.49
70323;BME280;57735;56.264;43.898;2023-03-22T04:47:13;100134.28;;;4.10;70.62
70323;BME280;57735;56.264;43.898;2023-03-22T04:49:44;100137.03;;;4.09;70.67
70323;BME280;57735;56.264;43.898;2023-03-22T04:52:15;100146.91;;;4.18;70.62
70323;BME280;57735;56.264;43.898;2023-03-22T04:54:45;100142.56;;;4.28;70.63
70323;BME280;57735;56.264;43.898;2023-03-22T04:57:16;100154.47;;;4.34;70.45
70323;BME280;57735;56.264;43.898;2023-03-22T04:59:46;100146.16;;;4.38;70.62
70323;BME280;57735;56.264;43.898;2023-03-22T05:02:17;100159.72;;;4.45;70.62
70323;BME280;57735;56.264;43.898;2023-03-22T05:04:47;100155.78;;;4.50;70.30
70323;BME280;57735;56.264;43.898;2023-03-22T05:07:18;100165.13;;;4.54;70.18
70323;BME280;57735;56.264;43.898;2023-03-22T05:09:48;100176.03;;;4.61;70.14
70323;BME280;57735;56.264;43.898;2023-03-22T05:12:19;100179.16;;;4.66;69.69
70323;BME280;57735;56.264;43.898;2023-03-22T05:14:50;100175.44;;;4.69;69.87
70323;BME280;57735;56.264;43.898;2023-03-22T05:17:20;100179.38;;;4.74;69.88
70323;BME280;57735;56.264;43.898;2023-03-22T05:19:51;100183.34;;;4.80;69.58
70323;BME280;57735;56.264;43.898;2023-03-22T05:22:21;100192.00;;;4.82;69.47
70323;BME280;57735;56.264;43.898;2023-03-22T05:24:52;100186.00;;;4.80;69.78
70323;BME280;57735;56.264;43.898;2023-03-22T05:27:22;100197.75;;;4.76;69.56
70323;BME280;57735;56.264;43.898;2023-03-22T05:30:00;100192.00;;;4.82;69.90
70323;BME280;57735;56.264;43.898;2023-03-22T05:32:31;100190.31;;;4.81;69.94
70323;BME280;57735;56.264;43.898;2023-03-22T05:35:01;100208.78;;;4.81;69.62
70323;BME280;57735;56.264;43.898;2023-03-22T05:37:34;100207.59;;;4.74;69.80
70323;BME280;57735;56.264;43.898;2023-03-22T05:40:05;100216.00;;;4.79;69.80
70323;BME280;57735;56.264;43.898;2023-03-22T05:42:39;100217.91;;;4.88;69.48
70323;BME280;57735;56.264;43.898;2023-03-22T05:45:09;100219.56;;;4.89;69.38
70323;BME280;57735;56.264;43.898;2023-03-22T05:47:40;100221.88;;;4.94;69.09
70323;BME280;57735;56.264;43.898;2023-03-22T05:50:15;100226.41;;;4.91;68.58
70323;BME280;57735;56.264;43.898;2023-03-22T05:52:46;100228.72;;;4.85;68.06
70323;BME280;57735;56.264;43.898;2023-03-22T05:55:17;100236.03;;;4.93;67.96
70323;BME280;57735;56.264;43.898;2023-03-22T05:57:48;100232.31;;;4.84;68.00
70323;BME280;57735;56.264;43.898;2023-03-22T06:00:20;100243.13;;;4.81;67.32
70323;BME280;57735;56.264;43.898;2023-03-22T06:02:52;100239.53;;;4.82;66.70
70323;BME280;57735;56.264;43.898;2023-03-22T06:05:29;100249.13;;;4.83;66.58
70323;BME280;57735;56.264;43.898;2023-03-22T06:08:00;100243.13;;;4.81;66.31
70323;BME280;57735;56.264;43.898;2023-03-22T06:10:31;100252.00;;;4.80;66.38
70323;BME280;57735;56.264;43.898;2023-03-22T06:13:01;100251.66;;;4.84;66.10
70323;BME280;57735;56.264;43.898;2023-03-22T06:15:32;100254.28;;;4.84;65.35
70323;BME280;57735;56.264;43.898;2023-03-22T06:18:02;100260.28;;;4.86;65.18
70323;BME280;57735;56.264;43.898;2023-03-22T06:20:33;100258.00;;;4.93;64.35
70323;BME280;57735;56.264;43.898;2023-03-22T06:23:04;100257.41;;;5.01;64.04
70323;BME280;57735;56.264;43.898;2023-03-22T06:25:38;100258.13;;;5.14;64.28
70323;BME280;57735;56.264;43.898;2023-03-22T06:28:09;100265.03;;;5.37;63.61
70323;BME280;57735;56.264;43.898;2023-03-22T06:30:39;100269.66;;;5.56;63.00
70323;BME280;57735;56.264;43.898;2023-03-22T06:33:10;100259.56;;;5.61;61.30
70323;BME280;57735;56.264;43.898;2023-03-22T06:35:40;100262.28;;;5.71;61.27
70323;BME280;57735;56.264;43.898;2023-03-22T06:38:11;100265.09;;;5.69;60.31
70323;BME280;57735;56.264;43.898;2023-03-22T06:40:42;100263.06;;;5.61;59.84
70323;BME280;57735;56.264;43.898;2023-03-22T06:43:37;100268.00;;;5.55;59.59
70323;BME280;57735;56.264;43.898;2023-03-22T06:46:07;100273.09;;;5.36;59.85
70323;BME280;57735;56.264;43.898;2023-03-22T06:48:38;100275.50;;;5.28;60.11
70323;BME280;57735;56.264;43.898;2023-03-22T06:51:08;100270.59;;;5.12;60.21
70323;BME280;57735;56.264;43.898;2023-03-22T06:53:39;100277.31;;;5.16;60.03
70323;BME280;57735;56.264;43.898;2023-03-22T06:56:09;100274.06;;;5.23;59.99
70323;BME280;57735;56.264;43.898;2023-03-22T06:58:40;100286.06;;;5.28;59.78
70323;BME280;57735;56.264;43.898;2023-03-22T07:01:11;100283.19;;;5.31;58.93
70323;BME280;57735;56.264;43.898;2023-03-22T07:03:41;100289.19;;;5.33;58.42
70323;BME280;57735;56.264;43.898;2023-03-22T07:06:12;100289.19;;;5.33;58.14
70323;BME280;57735;56.264;43.898;2023-03-22T07:08:42;100287.78;;;5.17;57.72
70323;BME280;57735;56.264;43.898;2023-03-22T07:11:13;100300.28;;;5.15;57.75
70323;BME280;57735;56.264;43.898;2023-03-22T07:13:43;100296.06;;;5.13;57.55
70323;BME280;57735;56.264;43.898;2023-03-22T07:16:14;100293.53;;;5.11;57.50
70323;BME280;57735;56.264;43.898;2023-03-22T07:18:45;100297.63;;;5.15;57.66
70323;BME280;57735;56.264;43.898;2023-03-22T07:21:15;100301.47;;;5.11;57.31
70323;BME280;57735;56.264;43.898;2023-03-22T07:23:46;100304.34;;;5.08;57.02
70323;BME280;57735;56.264;43.898;2023-03-22T07:26:17;100299.19;;;5.07;56.84
70323;BME280;57735;56.264;43.898;2023-03-22T07:28:47;100320.06;;;5.10;56.83
70323;BME280;57735;56.264;43.898;2023-03-22T07:31:18;100313.00;;;5.10;57.06
70323;BME280;57735;56.264;43.898;2023-03-22T07:33:49;100315.41;;;5.13;57.07
70323;BME280;57735;56.264;43.898;2023-03-22T07:36:24;100310.59;;;5.18;56.78
70323;BME280;57735;56.264;43.898;2023-03-22T07:38:57;100312.75;;;5.24;56.10
70323;BME280;57735;56.264;43.898;2023-03-22T07:41:27;100308.78;;;5.30;56.15
70323;BME280;57735;56.264;43.898;2023-03-22T07:44:01;100313.59;;;5.36;55.90
70323;BME280;57735;56.264;43.898;2023-03-22T07:46:32;100321.00;;;5.42;55.43
70323;BME280;57735;56.264;43.898;2023-03-22T07:49:02;100317.28;;;5.45;55.57
70323;BME280;57735;56.264;43.898;2023-03-22T07:51:33;100319.19;;;5.54;55.41
70323;BME280;57735;56.264;43.898;2023-03-22T07:54:03;100327.22;;;5.64;55.49
70323;BME280;57735;56.264;43.898;2023-03-22T07:56:34;100327.56;;;5.70;55.42
70323;BME280;57735;56.264;43.898;2023-03-22T07:59:06;100327.72;;;5.69;55.50
70323;BME280;57735;56.264;43.898;2023-03-22T08:01:36;100325.41;;;5.75;55.17
70323;BME280;57735;56.264;43.898;2023-03-22T08:04:07;100324.91;;;5.81;52.81
70323;BME280;57735;56.264;43.898;2023-03-22T08:06:38;100330.91;;;5.83;51.33
70323;BME280;57735;56.264;43.898;2023-03-22T08:09:09;100331.88;;;5.82;51.45
70323;BME280;57735;56.264;43.898;2023-03-22T08:11:40;100337.06;;;5.84;51.49
70323;BME280;57735;56.264;43.898;2023-03-22T08:14:11;100336.94;;;5.85;50.92
70323;BME280;57735;56.264;43.898;2023-03-22T08:16:41;100332.22;;;5.89;50.46
70323;BME280;57735;56.264;43.898;2023-03-22T08:19:13;100336.09;;;5.85;49.69
70323;BME280;57735;56.264;43.898;2023-03-22T08:21:43;100338.63;;;5.86;49.63
70323;BME280;57735;56.264;43.898;2023-03-22T08:24:16;100336.09;;;5.85;47.71
70323;BME280;57735;56.264;43.898;2023-03-22T08:26:47;100338.13;;;5.92;48.73
70323;BME280;57735;56.264;43.898;2023-03-22T08:29:18;100344.63;;;6.00;47.89
70323;BME280;57735;56.264;43.898;2023-03-22T08:31:52;100347.97;;;6.02;46.62
70323;BME280;57735;56.264;43.898;2023-03-22T08:34:23;100353.94;;;6.04;46.33
70323;BME280;57735;56.264;43.898;2023-03-22T08:36:54;100353.94;;;6.04;46.16
70323;BME280;57735;56.264;43.898;2023-03-22T08:39:25;100354.06;;;6.13;46.35
70323;BME280;57735;56.264;43.898;2023-03-22T08:41:56;100361.56;;;6.29;46.06
70323;BME280;57735;56.264;43.898;2023-03-22T08:44:27;100357.19;;;6.39;45.76
70323;BME280;57735;56.264;43.898;2023-03-22T08:46:57;100348.63;;;6.47;45.32
70323;BME280;57735;56.264;43.898;2023-03-22T08:49:28;100358.84;;;6.51;44.57
70323;BME280;57735;56.264;43.898;2023-03-22T08:51:59;100352.56;;;6.52;46.22
70323;BME280;57735;56.264;43.898;2023-03-22T08:54:29;100350.06;;;6.51;46.42
70323;BME280;57735;56.264;43.898;2023-03-22T08:57:02;100354.63;;;6.49;46.94
70323;BME280;57735;56.264;43.898;2023-03-22T08:59:33;100361.66;;;6.59;47.50
70323;BME280;57735;56.264;43.898;2023-03-22T09:02:03;100358.75;;;6.62;45.69
70323;BME280;57735;56.264;43.898;2023-03-22T09:04:34;100364.66;;;6.66;45.66
70323;BME280;57735;56.264;43.898;2023-03-22T09:07:05;100371.81;;;6.75;44.58
70323;BME280;57735;56.264;43.898;2023-03-22T09:09:36;100370.72;;;6.78;41.76
70323;BME280;57735;56.264;43.898;2023-03-22T09:12:06;100376.13;;;6.76;41.11
70323;BME280;57735;56.264;43.898;2023-03-22T09:14:37;100387.13;;;6.72;40.42
70323;BME280;57735;56.264;43.898;2023-03-22T09:17:07;100392.16;;;6.75;38.71
70323;BME280;57735;56.264;43.898;2023-03-22T09:19:38;100384.16;;;6.86;40.10
70323;BME280;57735;56.264;43.898;2023-03-22T09:22:09;100392.63;;;7.00;40.57
70323;BME280;57735;56.264;43.898;2023-03-22T09:24:39;100382.75;;;7.03;42.00
70323;BME280;57735;56.264;43.898;2023-03-22T09:27:10;100380.50;;;7.08;42.50
70323;BME280;57735;56.264;43.898;2023-03-22T09:29:41;100402.31;;;7.11;42.63
70323;BME280;57735;56.264;43.898;2023-03-22T09:32:11;100394.31;;;7.02;41.41
70323;BME280;57735;56.264;43.898;2023-03-22T09:34:42;100398.69;;;6.91;42.39
70323;BME280;57735;56.264;43.898;2023-03-22T09:37:12;100410.50;;;6.87;42.78
70323;BME280;57735;56.264;43.898;2023-03-22T09:39:43;100395.16;;;6.81;43.14
70323;BME280;57735;56.264;43.898;2023-03-22T09:44:53;100396.69;;;6.84;44.03
70323;BME280;57735;56.264;43.898;2023-03-22T09:47:29;100390.31;;;6.86;43.03
70323;BME280;57735;56.264;43.898;2023-03-22T09:50:06;100400.91;;;6.86;42.61
70323;BME280;57735;56.264;43.898;2023-03-22T09:52:38;100402.13;;;6.82;41.93
70323;BME280;57735;56.264;43.898;2023-03-22T09:55:17;100392.69;;;6.89;41.83
70323;BME280;57735;56.264;43.898;2023-03-22T09:57:55;100404.81;;;6.92;41.33
70323;BME280;57735;56.264;43.898;2023-03-22T10:00:35;100406.50;;;6.93;41.09
70323;BME280;57735;56.264;43.898;2023-03-22T10:10:58;100416.22;;;7.04;40.00
70323;BME280;57735;56.264;43.898;2023-03-22T10:16:39;100414.00;;;6.88;39.16
70323;BME280;57735;56.264;43.898;2023-03-22T10:19:22;100420.59;;;6.93;39.12
70323;BME280;57735;56.264;43.898;2023-03-22T10:21:55;100410.97;;;6.92;37.78
70323;BME280;57735;56.264;43.898;2023-03-22T10:24:32;100417.69;;;6.76;35.82
70323;BME280;57735;56.264;43.898;2023-03-22T10:27:10;100417.81;;;6.74;37.47
70323;BME280;57735;56.264;43.898;2023-03-22T10:29:46;100413.81;;;6.80;37.71
70323;BME280;57735;56.264;43.898;2023-03-22T10:32:28;100409.25;;;6.82;36.94
70323;BME280;57735;56.264;43.898;2023-03-22T10:34:59;100415.50;;;6.81;35.68
70323;BME280;57735;56.264;43.898;2023-03-22T10:37:33;100436.69;;;6.81;36.22
70323;BME280;57735;56.264;43.898;2023-03-22T10:40:05;100428.38;;;6.85;36.46
70323;BME280;57735;56.264;43.898;2023-03-22T10:42:36;100423.75;;;6.87;35.88
70323;BME280;57735;56.264;43.898;2023-03-22T10:45:10;100438.97;;;6.85;36.18
70323;BME280;57735;56.264;43.898;2023-03-22T10:47:58;100434.53;;;6.75;34.53
70323;BME280;57735;56.264;43.898;2023-03-22T10:50:33;100426.81;;;6.83;35.12
70323;BME280;57735;56.264;43.898;2023-03-22T10:53:07;100427.00;;;6.91;35.27
70323;BME280;57735;56.264;43.898;2023-03-22T10:55:42;100422.78;;;6.88;34.48
70323;BME280;57735;56.264;43.898;2023-03-22T10:58:16;100426.81;;;6.83;34.04
70323;BME280;57735;56.264;43.898;2023-03-22T11:00:52;100429.84;;;6.78;34.22
70323;BME280;57735;56.264;43.898;2023-03-22T11:03:30;100428.53;;;6.73;32.88
70323;BME280;57735;56.264;43.898;2023-03-22T11:08:49;100427.31;;;6.77;32.24
70323;BME280;57735;56.264;43.898;2023-03-22T11:11:21;100431.19;;;6.73;31.44
70323;BME280;57735;56.264;43.898;2023-03-22T11:13:53;100430.47;;;6.71;32.19
70323;BME280;57735;56.264;43.898;2023-03-22T11:16:24;100433.84;;;6.73;31.88
70323;BME280;57735;56.264;43.898;2023-03-22T11:18:56;100451.94;;;6.68;32.53
70323;BME280;57735;56.264;43.898;2023-03-22T11:21:30;100438.69;;;6.68;32.53
70323;BME280;57735;56.264;43.898;2023-03-22T11:24:05;100431.84;;;6.65;32.57
70323;BME280;57735;56.264;43.898;2023-03-22T11:26:36;100439.13;;;6.73;33.47
70323;BME280;57735;56.264;43.898;2023-03-22T11:29:11;100439.34;;;6.81;35.61
70323;BME280;57735;56.264;43.898;2023-03-22T11:31:53;100431.03;;;6.85;37.59
70323;BME280;57735;56.264;43.898;2023-03-22T11:34:26;100437.28;;;6.84;38.09
70323;BME280;57735;56.264;43.898;2023-03-22T11:36:59;100437.16;;;6.86;38.24
70323;BME280;57735;56.264;43.898;2023-03-22T11:39:30;100448.19;;;6.91;38.38
70323;BME280;57735;56.264;43.898;2023-03-22T11:42:01;100442.19;;;6.89;38.21
70323;BME280;57735;56.264;43.898;2023-03-22T11:44:33;100454.41;;;6.80;38.51
70323;BME280;57735;56.264;43.898;2023-03-22T11:47:06;100458.13;;;6.78;39.32
70323;BME280;57735;56.264;43.898;2023-03-22T11:52:25;100451.75;;;6.80;39.26
70323;BME280;57735;56.264;43.898;2023-03-22T11:54:57;100448.00;;;6.83;39.85
70323;BME280;57735;56.264;43.898;2023-03-22T11:57:29;100443.31;;;6.86;39.97
70323;BME280;57735;56.264;43.898;2023-03-22T12:00:05;100440.13;;;6.92;38.72
70323;BME280;57735;56.264;43.898;2023-03-22T12:03:00;100440.00;;;6.94;39.90
70323;BME280;57735;56.264;43.898;2023-03-22T12:05:38;100454.22;;;6.93;40.86
70323;BME280;57735;56.264;43.898;2023-03-22T12:08:14;100447.94;;;6.94;40.22
70323;BME280;57735;56.264;43.898;2023-03-22T12:10:49;100455.06;;;6.93;40.43
70323;BME280;57735;56.264;43.898;2023-03-22T12:13:43;100455.19;;;6.92;40.35
70323;BME280;57735;56.264;43.898;2023-03-22T12:16:19;100462.53;;;6.88;40.47
70323;BME280;57735;56.264;43.898;2023-03-22T12:19:04;100455.72;;;6.86;39.99
70323;BME280;57735;56.264;43.898;2023-03-22T12:21:36;100457.53;;;6.85;39.98
70323;BME280;57735;56.264;43.898;2023-03-22T12:24:10;100445.38;;;7.04;40.26
70323;BME280;57735;56.264;43.898;2023-03-22T12:26:48;100446.19;;;7.04;39.26
70323;BME280;57735;56.264;43.898;2023-03-22T12:29:22;100454.41;;;7.01;39.23
70323;BME280;57735;56.264;43.898;2023-03-22T12:32:01;100442.13;;;7.00;39.74
70323;BME280;57735;56.264;43.898;2023-03-22T12:34:35;100445.03;;;6.97;39.88
70323;BME280;57735;56.264;43.898;2023-03-22T12:37:10;100448.31;;;6.89;38.73
70323;BME280;57735;56.264;43.898;2023-03-22T12:39:52;100445.09;;;6.86;39.60
70323;BME280;57735;56.264;43.898;2023-03-22T12:42:25;100463.97;;;6.92;39.26
70323;BME280;57735;56.264;43.898;2023-03-22T12:45:09;100449.84;;;7.03;39.18
70323;BME280;57735;56.264;43.898;2023-03-22T12:47:55;100462.81;;;7.06;39.45
70323;BME280;57735;56.264;43.898;2023-03-22T12:50:47;100461.28;;;7.04;39.32
70323;BME280;57735;56.264;43.898;2023-03-22T12:53:18;100463.22;;;7.02;39.38
70323;BME280;57735;56.264;43.898;2023-03-22T12:55:50;100463.34;;;7.00;39.68
70323;BME280;57735;56.264;43.898;2023-03-22T12:58:22;100468.63;;;7.00;38.99
70323;BME280;57735;56.264;43.898;2023-03-22T13:00:59;100463.09;;;7.03;38.88
70323;BME280;57735;56.264;43.898;2023-03-22T13:03:44;100461.72;;;7.09;38.33
70323;BME280;57735;56.264;43.898;2023-03-22T13:06:32;100477.88;;;7.06;38.49
70323;BME280;57735;56.264;43.898;2023-03-22T13:11:38;100476.06;;;7.06;38.25
70323;BME280;57735;56.264;43.898;2023-03-22T13:14:11;100466.16;;;7.08;38.44
70323;BME280;57735;56.264;43.898;2023-03-22T13:16:52;100466.03;;;7.10;38.06
70323;BME280;57735;56.264;43.898;2023-03-22T13:19:26;100475.81;;;7.09;38.02
70323;BME280;57735;56.264;43.898;2023-03-22T13:24:57;100474.72;;;7.12;37.67
70323;BME280;57735;56.264;43.898;2023-03-22T13:32:57;100471.00;;;7.24;37.39
70323;BME280;57735;56.264;43.898;2023-03-22T13:35:43;100481.31;;;7.17;36.73
70323;BME280;57735;56.264;43.898;2023-03-22T13:38:21;100483.97;;;7.17;37.20
70323;BME280;57735;56.264;43.898;2023-03-22T13:43:25;100475.59;;;7.22;36.81
70323;BME280;57735;56.264;43.898;2023-03-22T13:46:04;100467.53;;;7.23;36.06
70323;BME280;57735;56.264;43.898;2023-03-22T13:51:31;100475.47;;;7.23;36.11
70323;BME280;57735;56.264;43.898;2023-03-22T13:59:26;100489.56;;;7.24;35.13
70323;BME280;57735;56.264;43.898;2023-03-22T14:02:02;100490.38;;;7.15;35.99
70323;BME280;57735;56.264;43.898;2023-03-22T14:04:52;100494.34;;;7.09;35.95
70323;BME280;57735;56.264;43.898;2023-03-22T14:07:30;100492.69;;;7.08;35.80
70323;BME280;57735;56.264;43.898;2023-03-22T14:15:19;100503.41;;;6.86;36.10
70323;BME280;57735;56.264;43.898;2023-03-22T14:20:32;100507.88;;;6.74;36.76
70323;BME280;57735;56.264;43.898;2023-03-22T14:23:46;100508.41;;;6.68;36.83
70323;BME280;57735;56.264;43.898;2023-03-22T14:26:00;100507.34;;;6.59;37.04
70323;BME280;57735;56.264;43.898;2023-03-22T14:28:37;100507.84;;;6.53;37.61
70323;BME280;57735;56.264;43.898;2023-03-22T14:31:21;100514.47;;;6.48;37.70
70323;BME280;57735;56.264;43.898;2023-03-22T14:33:52;100515.69;;;6.44;37.28
70323;BME280;57735;56.264;43.898;2023-03-22T14:36:23;100512.44;;;6.40;37.54
70323;BME280;57735;56.264;43.898;2023-03-22T14:38:57;100511.97;;;6.35;38.07